Time;durP1;ratioP1;P1;durP2;ratioP2;P2;SDS_P1;SDS_P2;PMS_P1;PMS_P2;Temp;Humidity;BMP_temperature;BMP_pressure;BME280_temperature;BME280_humidity;BME280_pressure;Samples;Min_cycle;Max_cycle;Signal;HPM_P1;HPM_P2
2022/10/20 00:01:03;;;;;;;28.17;18.90;;;;;;;10.57;81.71;100230.90;1792557;78;21022;-88
2022/10/20 00:03:30;;;;;;;23.10;16.95;;;;;;;10.57;81.64;100217.79;1791060;80;21204;-87
2022/10/20 00:06:17;;;;;;;22.82;17.85;;;;;;;10.59;81.73;100217.70;1789277;80;20883;-88
2022/10/20 00:08:44;;;;;;;20.05;16.32;;;;;;;10.60;81.76;100218.05;1788320;79;20903;-89
2022/10/20 00:11:14;;;;;;;18.50;14.78;;;;;;;10.62;81.80;100212.72;1789885;79;20939;-86
2022/10/20 00:13:45;;;;;;;20.08;15.18;;;;;;;10.62;81.92;100206.99;1789539;80;21447;-88
2022/10/20 00:16:13;;;;;;;18.67;14.73;;;;;;;10.64;82.03;100208.20;1789776;80;21420;-88
2022/10/20 00:18:40;;;;;;;16.55;14.00;;;;;;;10.67;82.01;100207.99;1789220;80;21026;-87
2022/10/20 00:21:13;;;;;;;18.30;14.75;;;;;;;10.69;81.95;100206.11;1789199;80;20880;-89
2022/10/20 00:23:40;;;;;;;15.63;14.05;;;;;;;10.70;81.98;100205.19;1789402;80;20924;-88
2022/10/20 00:26:11;;;;;;;16.42;13.85;;;;;;;10.71;81.95;100201.12;1789273;80;20913;-89
2022/10/20 00:28:39;;;;;;;17.40;12.75;;;;;;;10.71;81.88;100202.44;1789057;79;20931;-88
2022/10/20 00:31:06;;;;;;;15.83;14.05;;;;;;;10.67;81.72;100204.92;1789087;80;20928;-88
2022/10/20 00:33:33;;;;;;;15.23;12.55;;;;;;;10.65;81.91;100202.01;1789204;80;21412;-88
2022/10/20 00:36:02;;;;;;;17.07;14.53;;;;;;;10.66;82.07;100200.61;1789557;79;20946;-89
2022/10/20 00:38:29;;;;;;;17.90;16.00;;;;;;;10.69;82.13;100200.39;1789490;79;21296;-87
2022/10/20 00:40:55;;;;;;;16.77;13.98;;;;;;;10.72;82.11;100192.33;1789219;80;21280;-89
2022/10/20 00:43:22;;;;;;;17.62;15.72;;;;;;;10.75;82.14;100187.34;1789096;79;20911;-88
2022/10/20 00:45:53;;;;;;;18.87;15.83;;;;;;;10.77;82.24;100188.92;1789257;80;21638;-88
2022/10/20 00:48:24;;;;;;;22.30;16.50;;;;;;;10.82;82.31;100189.08;1789387;80;20947;-87
2022/10/20 00:50:53;;;;;;;22.85;16.90;;;;;;;10.86;82.25;100189.24;1789300;80;20935;-87
2022/10/20 00:53:24;;;;;;;18.30;16.00;;;;;;;10.90;82.21;100187.62;1789278;79;21246;-86
2022/10/20 00:55:51;;;;;;;22.13;16.77;;;;;;;10.94;82.17;100188.27;1789291;80;20912;-87
2022/10/20 00:58:18;;;;;;;18.12;16.10;;;;;;;10.96;82.12;100182.41;1783660;79;21534;-89
2022/10/20 01:00:45;;;;;;;20.90;17.45;;;;;;;10.98;82.01;100180.52;1789291;80;21373;-88
2022/10/20 01:03:19;;;;;;;20.82;17.40;;;;;;;11.00;81.96;100181.25;1789255;80;20856;-88
2022/10/20 01:05:47;;;;;;;21.68;17.62;;;;;;;11.04;81.88;100181.89;1789249;80;21174;-88
2022/10/20 01:08:14;;;;;;;22.35;17.15;;;;;;;11.06;81.75;100187.88;1789041;80;20911;-88
2022/10/20 01:11:21;;;;;;;22.37;18.67;;;;;;;11.07;81.69;100182.98;1789113;79;20884;-88
2022/10/20 01:14:03;;;;;;;19.98;17.73;;;;;;;11.06;81.71;100180.01;1789189;80;21005;-88
2022/10/20 01:17:25;;;;;;;22.30;18.73;;;;;;;11.07;81.60;100177.73;1789250;80;20947;-88
2022/10/20 01:20:37;;;;;;;21.52;18.85;;;;;;;11.08;81.56;100184.20;1789238;79;21164;-88
2022/10/20 01:23:44;;;;;;;24.20;19.20;;;;;;;11.09;81.42;100175.84;1789488;79;20892;-88
2022/10/20 01:26:38;;;;;;;24.37;18.48;;;;;;;11.09;81.37;100175.37;1789341;79;20852;-88
2022/10/20 01:29:18;;;;;;;22.02;17.67;;;;;;;11.10;81.22;100177.06;1779242;80;21429;-87
2022/10/20 01:32:06;;;;;;;20.08;17.27;;;;;;;11.10;81.15;100170.98;1760256;81;20899;-89
2022/10/20 01:34:47;;;;;;;22.77;17.45;;;;;;;11.10;81.09;100171.81;1760677;81;21172;-88
2022/10/20 01:37:34;;;;;;;21.23;17.50;;;;;;;11.12;81.09;100169.09;1760247;81;20914;-87
2022/10/20 01:40:15;;;;;;;21.70;17.23;;;;;;;11.13;80.98;100162.41;1760789;81;20879;-87
2022/10/20 01:42:42;;;;;;;20.88;17.67;;;;;;;11.14;80.89;100161.95;1735863;81;21556;-89
2022/10/20 01:45:09;;;;;;;21.17;18.25;;;;;;;11.14;80.79;100167.20;1760127;81;21016;-89
2022/10/20 01:47:36;;;;;;;21.97;16.42;;;;;;;11.15;80.69;100167.55;1757426;80;21155;-89
2022/10/20 01:50:04;;;;;;;20.95;17.23;;;;;;;11.16;80.62;100166.59;1759977;81;21404;-89
2022/10/20 01:52:31;;;;;;;25.43;18.48;;;;;;;11.16;80.63;100166.15;1760218;81;20895;-88
2022/10/20 01:54:58;;;;;;;23.42;17.98;;;;;;;11.18;80.58;100168.20;1760334;80;20930;-90
2022/10/20 01:57:51;;;;;;;24.52;17.60;;;;;;;11.17;80.52;100161.73;1760072;80;20875;-87
2022/10/20 02:00:17;;;;;;;24.95;18.52;;;;;;;11.17;80.44;100162.56;1759221;81;21096;-89
2022/10/20 02:03:07;;;;;;;27.37;21.33;;;;;;;11.15;80.33;100165.77;1760174;80;20910;-87
2022/10/20 02:05:58;;;;;;;23.65;18.60;;;;;;;11.14;80.39;100158.85;1760069;80;20867;-88
2022/10/20 02:08:48;;;;;;;24.47;18.85;;;;;;;11.14;80.31;100158.02;1760182;80;20914;-88
2022/10/20 02:11:33;;;;;;;20.75;17.57;;;;;;;11.13;80.24;100152.39;1760565;81;20930;-88
2022/10/20 02:14:00;;;;;;;24.30;18.32;;;;;;;11.10;80.13;100158.69;1760201;81;21158;-88
2022/10/20 02:16:39;;;;;;;20.23;17.00;;;;;;;11.10;80.28;100161.31;1760204;80;20914;-89
2022/10/20 02:19:07;;;;;;;25.65;17.67;;;;;;;11.09;80.29;100162.25;1760698;81;21369;-88
2022/10/20 02:21:33;;;;;;;20.08;17.15;;;;;;;11.09;80.34;100159.63;1760248;81;20942;-87
2022/10/20 02:24:04;;;;;;;25.88;17.62;;;;;;;11.09;80.29;100156.16;1760491;81;20985;-87
2022/10/20 02:26:32;;;;;;;26.48;19.77;;;;;;;11.08;80.23;100154.02;1760199;81;21246;-90
2022/10/20 02:29:03;;;;;;;27.90;19.77;;;;;;;11.08;80.22;100148.78;1765482;79;21006;-88
2022/10/20 02:31:30;;;;;;;23.85;19.17;;;;;;;11.08;80.07;100149.25;1787873;80;20943;-88
2022/10/20 02:33:56;;;;;;;27.82;18.70;;;;;;;11.07;80.00;100144.94;1789145;79;20875;-89
2022/10/20 02:36:27;;;;;;;26.17;19.02;;;;;;;11.06;79.98;100144.10;1733476;80;20892;-88
2022/10/20 02:38:54;;;;;;;28.17;20.80;;;;;;;11.05;80.02;100146.38;1789275;79;21219;-89
2022/10/20 02:41:21;;;;;;;23.47;19.35;;;;;;;11.05;80.02;100145.06;1789229;80;20897;-89
2022/10/20 02:43:47;;;;;;;26.50;20.25;;;;;;;11.06;80.05;100143.27;1789036;80;20899;-89
2022/10/20 02:46:15;;;;;;;27.58;20.00;;;;;;;11.04;80.09;100142.05;1789108;79;20903;-88
2022/10/20 02:48:42;;;;;;;28.65;21.25;;;;;;;11.05;80.07;100144.20;1789019;79;21436;-89
2022/10/20 02:51:09;;;;;;;27.02;20.05;;;;;;;11.05;80.11;100142.44;1789212;80;20997;-90
2022/10/20 02:53:36;;;;;;;27.25;21.02;;;;;;;11.04;80.09;100139.91;1789213;79;20842;-88
2022/10/20 02:56:04;;;;;;;28.12;20.85;;;;;;;11.02;80.01;100133.45;1789716;79;20959;-88
2022/10/20 02:58:31;;;;;;;33.33;21.02;;;;;;;11.02;80.03;100138.70;1789607;79;20951;-89
2022/10/20 03:00:57;;;;;;;28.27;20.32;;;;;;;11.01;79.95;100134.89;1791814;80;20926;-89
2022/10/20 03:03:25;;;;;;;27.70;20.23;;;;;;;10.98;79.92;100135.91;1789962;80;21436;-89
2022/10/20 03:05:52;;;;;;;27.82;20.60;;;;;;;10.96;79.88;100137.36;1789974;80;21439;-90
2022/10/20 03:08:20;;;;;;;22.40;18.73;;;;;;;10.95;79.89;100140.08;1790067;79;21029;-89
2022/10/20 03:10:47;;;;;;;24.15;17.55;;;;;;;10.93;79.99;100141.97;1789722;78;20942;-89
2022/10/20 03:13:14;;;;;;;22.10;17.17;;;;;;;10.90;80.03;100138.25;1791989;79;20915;-89
2022/10/20 03:15:41;;;;;;;24.67;16.75;;;;;;;10.89;80.04;100136.08;1792620;78;21215;-90
2022/10/20 03:18:08;;;;;;;21.48;17.77;;;;;;;10.86;80.04;100128.44;1791821;78;20923;-90
2022/10/20 03:20:35;;;;;;;20.23;16.65;;;;;;;10.85;80.07;100129.84;1791963;78;20955;-91
2022/10/20 03:23:02;;;;;;;19.92;17.67;;;;;;;10.82;80.15;100130.06;1789723;80;20967;-90
2022/10/20 03:25:31;;;;;;;19.85;16.73;;;;;;;10.80;80.19;100128.84;1789514;79;21456;-91
2022/10/20 03:27:58;;;;;;;19.23;15.65;;;;;;;10.78;80.23;100125.05;1789176;80;22665;-90
2022/10/20 03:30:24;;;;;;;21.60;16.15;;;;;;;10.77;80.24;100125.14;1770251;80;21409;-91
2022/10/20 03:32:51;;;;;;;21.30;16.77;;;;;;;10.74;80.30;100120.95;1760060;81;21838;-90
2022/10/20 03:35:19;;;;;;;20.52;15.88;;;;;;;10.75;80.38;100118.67;1760080;81;20941;-88
2022/10/20 03:37:45;;;;;;;18.07;15.65;;;;;;;10.74;80.33;100111.77;1760174;80;20899;-89
2022/10/20 03:40:12;;;;;;;25.23;17.62;;;;;;;10.75;80.29;100115.22;1760403;80;21897;-90
2022/10/20 03:42:39;;;;;;;19.17;16.15;;;;;;;10.74;80.24;100113.08;1761078;81;20887;-90
2022/10/20 03:45:06;;;;;;;21.60;18.52;;;;;;;10.72;80.21;100104.48;1760385;81;20870;-90
2022/10/20 03:47:33;;;;;;;26.15;17.85;;;;;;;10.70;80.26;100105.05;1760503;81;20973;-89
2022/10/20 03:50:00;;;;;;;24.65;19.05;;;;;;;10.69;80.24;100103.84;1760513;81;20938;-89
2022/10/20 03:52:27;;;;;;;24.27;17.70;;;;;;;10.67;80.27;100105.27;1760308;81;21294;-90
2022/10/20 03:54:54;;;;;;;27.65;19.40;;;;;;;10.67;80.24;100100.48;1760184;81;20911;-88
2022/10/20 03:57:20;;;;;;;27.60;19.15;;;;;;;10.66;80.31;100098.33;1760284;81;21033;-90
2022/10/20 03:59:46;;;;;;;32.30;19.02;;;;;;;10.66;80.32;100093.56;1760279;81;20930;-89
2022/10/20 04:02:32;;;;;;;20.40;17.35;;;;;;;10.66;80.30;100092.26;1760282;81;20958;-91
2022/10/20 04:04:59;;;;;;;20.92;15.83;;;;;;;10.66;80.24;100088.33;1759453;81;21313;-89
2022/10/20 04:07:25;;;;;;;24.67;18.77;;;;;;;10.67;80.32;100089.98;1759980;81;20970;-90
2022/10/20 04:09:51;;;;;;;17.35;13.80;;;;;;;10.67;80.21;100089.54;1760188;81;20938;-90
2022/10/20 04:12:19;;;;;;;19.10;14.23;;;;;;;10.68;80.15;100082.50;1760063;81;21024;-89
2022/10/20 04:14:47;;;;;;;17.85;13.00;;;;;;;10.68;80.19;100087.27;1760334;81;21033;-88
2022/10/20 04:17:15;;;;;;;18.12;13.22;;;;;;;10.69;80.18;100078.44;1760571;81;20906;-89
2022/10/20 04:19:41;;;;;;;18.42;13.88;;;;;;;10.70;80.24;100083.23;1760622;80;20998;-88
2022/10/20 04:22:09;;;;;;;17.23;12.70;;;;;;;10.71;80.25;100083.11;1760828;81;21349;-91
2022/10/20 04:24:35;;;;;;;16.12;12.68;;;;;;;10.71;80.13;100079.18;1760209;81;20875;-88
2022/10/20 04:27:02;;;;;;;18.25;13.43;;;;;;;10.72;80.09;100083.50;1760521;80;20958;-90
2022/10/20 04:29:29;;;;;;;18.87;13.15;;;;;;;10.72;80.15;100082.19;1764330;80;21154;-89
2022/10/20 04:31:57;;;;;;;16.75;14.03;;;;;;;10.74;80.11;100083.40;1790463;80;20927;-88
2022/10/20 04:34:23;;;;;;;24.77;15.08;;;;;;;10.74;80.09;100094.72;1790185;80;20931;-91
2022/10/20 04:36:50;;;;;;;18.42;14.25;;;;;;;10.76;80.14;100091.52;1789898;79;21401;-90
2022/10/20 04:39:16;;;;;;;20.30;14.38;;;;;;;10.77;80.21;100087.94;1789716;79;20926;-88
2022/10/20 04:41:43;;;;;;;24.02;17.25;;;;;;;10.79;80.17;100091.78;1789327;79;21768;-87
2022/10/20 04:44:09;;;;;;;20.02;15.13;;;;;;;10.79;80.06;100091.78;1789372;80;20962;-88
2022/10/20 04:46:37;;;;;;;20.80;14.95;;;;;;;10.82;80.01;100092.03;1789534;80;20911;-90
2022/10/20 04:49:04;;;;;;;18.82;13.25;;;;;;;10.82;79.89;100088.92;1789442;80;20971;-90
2022/10/20 04:51:30;;;;;;;18.62;13.93;;;;;;;10.85;79.87;100101.85;1790753;79;20994;-88
2022/10/20 04:53:58;;;;;;;18.25;13.70;;;;;;;10.85;79.87;100099.23;1791001;80;21161;-91
2022/10/20 04:56:25;;;;;;;23.57;14.73;;;;;;;10.87;79.82;100093.85;1790207;80;20915;-91
2022/10/20 04:58:57;;;;;;;17.25;13.53;;;;;;;10.89;79.79;100097.20;1789913;80;21356;-88
2022/10/20 05:01:27;;;;;;;24.43;15.85;;;;;;;10.90;79.75;100102.84;1789878;79;20935;-88
2022/10/20 05:03:54;;;;;;;19.87;15.70;;;;;;;10.90;79.68;100097.59;1790504;79;20883;-88
2022/10/20 05:06:27;;;;;;;20.10;15.72;;;;;;;10.88;79.60;100102.94;1790538;80;21494;-90
2022/10/20 05:08:56;;;;;;;21.83;15.27;;;;;;;10.87;79.57;100097.34;1790767;79;21452;-88
2022/10/20 05:11:24;;;;;;;18.87;13.70;;;;;;;10.85;79.59;100100.98;1790565;79;21031;-88
2022/10/20 05:13:52;;;;;;;25.80;14.65;;;;;;;10.80;79.73;100098.69;1790430;79;21464;-89
2022/10/20 05:16:19;;;;;;;18.67;13.35;;;;;;;10.78;79.97;100103.20;1792284;80;20884;-90
2022/10/20 05:18:47;;;;;;;17.27;13.35;;;;;;;10.76;80.21;100105.95;1789503;80;21385;-89
2022/10/20 05:21:18;;;;;;;15.83;10.88;;;;;;;10.74;80.24;100097.83;1789530;80;20860;-89
2022/10/20 05:23:46;;;;;;;16.87;10.48;;;;;;;10.72;80.43;100104.48;1789675;79;20848;-90
2022/10/20 05:26:17;;;;;;;10.05;8.45;;;;;;;10.68;80.56;100106.94;1789634;79;20852;-89
2022/10/20 05:28:47;;;;;;;15.98;7.62;;;;;;;10.66;80.81;100102.27;1789399;80;20970;-91
2022/10/20 05:31:17;;;;;;;26.68;16.75;;;;;;;10.63;81.01;100106.42;1789471;80;21144;-89
2022/10/20 05:33:50;;;;;;;5.92;5.05;;;;;;;10.59;80.94;100115.44;1789777;80;20939;-89
2022/10/20 05:36:19;;;;;;;6.08;5.47;;;;;;;10.51;80.77;100108.56;1789650;79;20935;-91
2022/10/20 05:38:46;;;;;;;4.03;3.58;;;;;;;10.45;80.99;100122.07;1789468;80;20884;-91
2022/10/20 05:41:18;;;;;;;3.58;2.60;;;;;;;10.36;80.98;100125.70;1789751;79;20888;-91
2022/10/20 05:43:59;;;;;;;2.75;2.55;;;;;;;10.31;81.19;100133.48;1789780;80;21162;-91
2022/10/20 05:46:31;;;;;;;2.35;2.15;;;;;;;10.28;81.12;100133.20;1789453;80;20908;-90
2022/10/20 05:49:01;;;;;;;1.55;1.45;;;;;;;10.23;81.24;100147.08;1789819;80;21526;-90
2022/10/20 05:51:31;;;;;;;3.87;1.75;;;;;;;10.17;81.43;100147.48;1790265;80;20879;-90
2022/10/20 05:53:58;;;;;;;1.15;1.05;;;;;;;10.13;81.44;100158.63;1785399;80;20860;-91
2022/10/20 05:56:26;;;;;;;1.70;0.90;;;;;;;10.06;81.43;100160.45;1790439;79;21721;-90
2022/10/20 05:58:53;;;;;;;0.85;0.85;;;;;;;9.97;81.40;100167.13;1790422;79;20892;-91
2022/10/20 06:01:23;;;;;;;0.75;0.55;;;;;;;9.91;81.71;100168.82;1792007;79;20950;-89
2022/10/20 06:03:53;;;;;;;1.30;0.70;;;;;;;9.89;81.93;100178.11;1792326;79;20876;-91
2022/10/20 06:06:23;;;;;;;2.95;0.50;;;;;;;9.81;81.67;100186.08;1792367;80;21486;-90
2022/10/20 06:08:49;;;;;;;0.62;0.40;;;;;;;9.71;81.38;100197.11;1791777;79;22196;-92
2022/10/20 06:11:18;;;;;;;0.90;0.20;;;;;;;9.60;81.06;100200.05;1790958;79;20860;-93
2022/10/20 06:13:45;;;;;;;1.37;0.68;;;;;;;9.45;81.08;100190.92;1791416;79;20887;-90
2022/10/20 06:16:19;;;;;;;0.47;0.20;;;;;;;9.35;81.20;100202.87;1790436;79;20962;-92
2022/10/20 06:18:49;;;;;;;1.30;0.30;;;;;;;9.28;81.20;100201.58;1790645;80;20892;-92
2022/10/20 06:21:21;;;;;;;0.55;0.30;;;;;;;9.17;81.16;100198.78;1790527;80;21335;-92
2022/10/20 06:23:48;;;;;;;0.20;0.10;;;;;;;9.06;81.09;100209.89;1790649;80;20892;-90
2022/10/20 06:26:22;;;;;;;0.55;0.55;;;;;;;8.95;81.31;100211.84;1791077;80;20876;-91
2022/10/20 06:28:52;;;;;;;0.90;0.30;;;;;;;8.92;81.85;100212.87;1791958;79;21297;-89
2022/10/20 06:31:38;;;;;;;0.30;0.30;;;;;;;8.92;82.02;100218.57;1792423;78;20984;-89
2022/10/20 06:34:17;;;;;;;0.20;0.20;;;;;;;8.93;82.08;100215.84;1792703;78;20875;-90
2022/10/20 06:36:44;;;;;;;0.20;0.20;;;;;;;8.95;81.97;100218.38;1792504;78;20852;-91
2022/10/20 06:39:17;;;;;;;0.30;0.28;;;;;;;8.78;81.48;100202.41;1792175;78;20943;-93
2022/10/20 06:41:49;;;;;;;0.37;0.20;;;;;;;8.83;81.21;100223.05;1760796;80;20915;-93
2022/10/20 06:44:21;;;;;;;0.78;0.50;;;;;;;8.75;81.21;100227.40;1791820;80;20919;-93
2022/10/20 06:46:54;;;;;;;0.37;0.37;;;;;;;8.68;81.35;100228.23;1761167;80;20888;-89
2022/10/20 06:49:20;;;;;;;1.77;0.30;;;;;;;8.63;81.28;100232.05;1792218;80;20939;-91
2022/10/20 06:51:47;;;;;;;0.40;0.25;;;;;;;8.55;81.04;100236.87;1791262;80;20891;-91
2022/10/20 06:54:14;;;;;;;0.28;0.28;;;;;;;8.47;81.26;100234.25;1791436;80;20923;-92
2022/10/20 06:56:42;;;;;;;0.30;0.28;;;;;;;8.43;81.36;100237.13;1760598;80;20935;-91
2022/10/20 06:59:09;;;;;;;0.25;0.20;;;;;;;8.39;81.72;100240.33;1790741;80;21137;-91
2022/10/20 07:01:40;;;;;;;0.47;0.42;;;;;;;8.41;81.82;100237.20;1790993;79;20872;-89
2022/10/20 07:04:14;;;;;;;0.20;0.20;;;;;;;8.38;81.58;100242.58;1791194;80;20944;-91
2022/10/20 07:06:43;;;;;;;0.90;0.20;;;;;;;8.36;81.89;100240.95;1791689;80;20927;-90
2022/10/20 07:09:16;;;;;;;0.45;0.20;;;;;;;8.35;81.66;100246.66;1791486;80;20908;-91
2022/10/20 07:11:48;;;;;;;0.47;0.20;;;;;;;8.33;81.96;100251.13;1791606;79;21213;-91
2022/10/20 07:14:19;;;;;;;1.67;0.30;;;;;;;8.32;81.99;100253.84;1791630;80;20883;-92
2022/10/20 07:16:47;;;;;;;2.02;0.20;;;;;;;8.32;82.00;100252.06;1791185;80;20880;-90
2022/10/20 07:19:14;;;;;;;0.30;0.30;;;;;;;8.31;81.86;100252.98;1790934;79;20943;-91
2022/10/20 07:21:43;;;;;;;0.28;0.17;;;;;;;8.27;81.73;100258.86;1790845;80;20931;-91
2022/10/20 07:24:10;;;;;;;0.80;0.47;;;;;;;8.24;81.44;100258.17;1790598;79;22335;-91
2022/10/20 07:26:39;;;;;;;0.35;0.20;;;;;;;8.22;81.61;100255.64;1791139;80;20844;-92
2022/10/20 07:29:06;;;;;;;4.85;0.50;;;;;;;8.21;81.13;100260.50;1791316;79;20900;-92
2022/10/20 07:31:36;;;;;;;0.17;0.15;;;;;;;8.21;81.16;100264.89;1773890;79;20973;-90
2022/10/20 07:34:05;;;;;;;0.75;0.50;;;;;;;8.20;81.03;100265.80;1762476;81;20938;-90
2022/10/20 07:39:36;;;;;;;1.12;0.47;;;;;;;8.12;80.68;100266.24;1711764;84;20902;-90
2022/10/20 07:42:05;;;;;;;1.10;0.30;;;;;;;8.03;80.69;100268.89;1695774;84;20883;-91
2022/10/20 07:44:33;;;;;;;1.05;0.42;;;;;;;7.95;80.76;100272.38;1698617;83;21407;-89
2022/10/20 07:47:00;;;;;;;0.75;0.55;;;;;;;7.93;81.26;100271.63;1695017;83;21287;-91
2022/10/20 07:49:27;;;;;;;75.78;45.85;;;;;;;7.94;81.45;100275.06;1720581;82;21148;-91
2022/10/20 07:51:54;;;;;;;13.35;7.42;;;;;;;7.96;81.37;100281.05;1720642;82;21312;-91
2022/10/20 07:54:24;;;;;;;2.25;0.80;;;;;;;7.94;81.18;100280.29;1710734;82;20939;-92
2022/10/20 07:56:51;;;;;;;0.47;0.40;;;;;;;7.91;80.98;100283.91;1695637;84;20955;-89
2022/10/20 07:59:19;;;;;;;9.63;5.75;;;;;;;7.89;81.22;100275.32;1724963;83;21010;-92
2022/10/20 08:01:45;;;;;;;1.75;0.70;;;;;;;7.93;81.83;100273.40;1695453;84;21105;-91
2022/10/20 08:04:14;;;;;;;0.95;0.23;;;;;;;7.92;81.51;100283.00;1721423;82;20978;-91
2022/10/20 08:06:46;;;;;;;1.02;0.50;;;;;;;7.89;81.29;100277.49;1711748;84;20950;-91
2022/10/20 08:09:14;;;;;;;0.85;0.40;;;;;;;7.87;81.27;100285.03;1696119;84;20923;-90
2022/10/20 08:11:42;;;;;;;0.90;0.40;;;;;;;7.87;81.17;100283.25;1692870;83;20872;-91
2022/10/20 08:14:09;;;;;;;1.40;0.40;;;;;;;7.90;81.23;100283.55;1720988;82;21396;-87
2022/10/20 08:16:37;;;;;;;0.50;0.40;;;;;;;7.91;81.29;100286.99;1710373;82;21372;-90
2022/10/20 08:19:06;;;;;;;1.72;0.55;;;;;;;7.93;80.94;100295.13;1695265;84;20998;-90
2022/10/20 08:21:33;;;;;;;0.98;0.33;;;;;;;7.91;80.91;100291.75;1724474;83;20958;-90
2022/10/20 08:24:01;;;;;;;0.45;0.10;;;;;;;7.87;80.76;100301.53;1695250;84;20994;-89
2022/10/20 08:26:28;;;;;;;0.62;0.20;;;;;;;7.84;80.61;100304.76;1720550;82;21871;-91
2022/10/20 08:28:54;;;;;;;1.22;0.30;;;;;;;7.79;80.40;100304.17;1710608;84;20859;-89
2022/10/20 08:31:22;;;;;;;0.20;0.20;;;;;;;7.75;80.37;100311.78;1707418;82;20918;-91
2022/10/20 08:33:52;;;;;;;0.25;0.25;;;;;;;7.70;80.57;100317.72;1707534;84;20973;-90
2022/10/20 08:36:18;;;;;;;8.13;5.53;;;;;;;7.65;80.52;100315.35;1707510;84;20958;-88
2022/10/20 08:38:45;;;;;;;1.47;0.30;;;;;;;7.63;80.66;100318.50;1716299;83;21141;-88
2022/10/20 08:41:24;;;;;;;9.80;4.70;;;;;;;7.60;80.55;100314.73;1722818;82;20843;-88
2022/10/20 08:43:52;;;;;;;27.77;17.00;;;;;;;7.58;80.47;100327.02;1721639;82;20898;-90
2022/10/20 08:46:22;;;;;;;2.05;0.47;;;;;;;7.55;80.56;100322.80;1722667;82;20945;-90
2022/10/20 08:48:48;;;;;;;0.70;0.57;;;;;;;7.58;80.59;100328.31;1694613;83;20985;-89
2022/10/20 08:51:22;;;;;;;0.75;0.20;;;;;;;7.56;79.90;100328.42;1724102;82;21255;-90
2022/10/20 08:53:56;;;;;;;1.75;0.40;;;;;;;7.50;79.85;100324.81;1725544;82;20978;-89
2022/10/20 08:56:26;;;;;;;0.70;0.53;;;;;;;7.48;80.05;100324.05;1721526;82;20894;-90
2022/10/20 08:58:55;;;;;;;1.57;0.30;;;;;;;7.51;80.05;100321.73;1696398;83;21422;-88
2022/10/20 09:01:34;;;;;;;0.30;0.10;;;;;;;7.51;79.74;100326.48;1696396;84;20886;-88
2022/10/20 09:04:26;;;;;;;0.40;0.30;;;;;;;7.50;79.75;100323.98;1696428;84;20938;-89
2022/10/20 09:07:04;;;;;;;1.37;0.15;;;;;;;7.46;79.82;100331.95;1725310;82;20886;-87
2022/10/20 09:09:33;;;;;;;1.87;0.30;;;;;;;7.48;79.94;100327.96;1721801;82;20941;-87
2022/10/20 09:12:06;;;;;;;1.12;0.40;;;;;;;7.44;79.62;100325.96;1725091;82;20934;-88
2022/10/20 09:14:38;;;;;;;0.10;0.10;;;;;;;7.39;79.69;100331.89;1725097;82;20847;-87
2022/10/20 09:17:06;;;;;;;1.20;0.30;;;;;;;7.32;79.71;100327.91;1725036;82;21099;-89
2022/10/20 09:19:34;;;;;;;1.55;0.55;;;;;;;7.29;80.09;100322.83;1725249;82;20890;-90
2022/10/20 09:22:06;;;;;;;2.25;1.07;;;;;;;7.28;80.26;100332.90;1652502;84;20915;-90
2022/10/20 09:24:34;;;;;;;0.72;0.70;;;;;;;7.30;80.72;100329.75;1724232;82;21254;-91
2022/10/20 09:27:30;;;;;;;0.20;0.20;;;;;;;7.35;80.84;100332.96;1702473;83;20906;-90
2022/10/20 09:29:57;;;;;;;0.40;0.30;;;;;;;7.37;80.76;100334.20;1725039;82;21815;-88
2022/10/20 09:32:34;;;;;;;0.33;0.33;;;;;;;7.40;80.91;100338.81;1724555;82;21335;-88
2022/10/20 09:35:22;;;;;;;0.62;0.40;;;;;;;7.45;80.85;100336.80;1724296;82;21387;-88
2022/10/20 09:38:00;;;;;;;0.80;0.20;;;;;;;7.51;80.90;100332.17;1701512;83;20982;-89
2022/10/20 09:40:27;;;;;;;0.75;0.40;;;;;;;7.56;80.64;100332.77;1711133;84;20986;-90
2022/10/20 09:46:12;;;;;;;1.25;0.40;;;;;;;7.69;79.95;100337.73;1854823;76;22732;-88
2022/10/20 09:48:47;;;;;;;1.90;1.35;;;;;;;7.65;79.79;100330.55;1823723;77;20959;-89
2022/10/20 09:51:26;;;;;;;1.05;0.95;;;;;;;7.63;79.76;100340.69;1823728;77;21220;-90
2022/10/20 09:54:10;;;;;;;4.75;2.92;;;;;;;7.63;79.78;100349.81;1823590;77;20758;-95
2022/10/20 09:56:40;;;;;;;0.33;0.33;;;;;;;7.59;79.57;100357.42;1821828;77;20979;-92
2022/10/20 09:59:21;;;;;;;0.62;0.30;;;;;;;7.54;79.24;100351.60;1822982;78;20982;-90
2022/10/20 10:01:59;;;;;;;3.27;2.27;;;;;;;7.51;78.86;100359.57;1823064;78;20880;-90
2022/10/20 10:04:37;;;;;;;4.65;2.60;;;;;;;7.47;79.22;100346.70;1822829;78;21011;-89
2022/10/20 10:07:29;;;;;;;3.58;2.05;;;;;;;7.52;78.97;100357.36;1817380;78;20979;-89
2022/10/20 10:10:07;;;;;;;0.80;0.40;;;;;;;7.52;78.61;100363.41;1822775;78;20880;-90
2022/10/20 10:12:34;;;;;;;0.53;0.50;;;;;;;7.52;78.07;100363.88;1822384;78;20880;-88
2022/10/20 10:15:23;;;;;;;4.37;3.95;;;;;;;7.47;78.23;100367.56;1822743;78;20873;-90
2022/10/20 10:17:51;;;;;;;7.75;5.17;;;;;;;7.44;78.25;100376.00;1822841;78;21652;-91
2022/10/20 10:20:34;;;;;;;2.45;2.05;;;;;;;7.39;77.59;100379.31;1822755;78;20959;-94
2022/10/20 10:23:25;;;;;;;1.17;0.65;;;;;;;7.31;77.50;100378.84;1822508;78;20963;-89
2022/10/20 10:25:52;;;;;;;0.70;0.65;;;;;;;7.23;77.67;100376.17;1787306;78;20923;-92
2022/10/20 10:28:38;;;;;;;0.50;0.50;;;;;;;7.22;77.87;100384.89;1823424;78;20899;-90
2022/10/20 10:31:21;;;;;;;1.65;0.30;;;;;;;7.20;78.12;100379.37;1822590;78;23226;-89
2022/10/20 10:34:14;;;;;;;1.02;0.60;;;;;;;7.15;78.21;100386.13;1821794;78;20931;-88
2022/10/20 10:36:41;;;;;;;0.42;0.42;;;;;;;7.12;77.81;100393.28;1822050;78;20888;-91
2022/10/20 10:39:14;;;;;;;0.37;0.28;;;;;;;7.04;77.68;100396.24;1822590;78;20903;-89
2022/10/20 10:42:22;;;;;;;1.15;0.55;;;;;;;6.96;77.73;100396.63;1823592;78;20883;-88
2022/10/20 10:45:00;;;;;;;0.88;0.80;;;;;;;6.90;77.95;100403.44;1823373;78;21088;-93
2022/10/20 10:47:52;;;;;;;0.45;0.40;;;;;;;6.88;78.22;100407.04;1813158;78;20971;-91
2022/10/20 10:50:39;;;;;;;0.85;0.78;;;;;;;6.83;78.41;100406.80;1812772;78;20880;-91
2022/10/20 10:53:39;;;;;;;0.45;0.45;;;;;;;6.78;78.50;100408.79;1828067;78;21033;-91
2022/10/20 10:56:29;;;;;;;0.40;0.40;;;;;;;6.75;78.72;100414.13;1798349;78;20880;-92
2022/10/20 10:59:04;;;;;;;0.42;0.40;;;;;;;6.67;78.74;100419.31;1798011;78;22242;-90
2022/10/20 11:02:12;;;;;;;1.05;0.40;;;;;;;6.58;79.03;100420.59;1827417;78;20911;-89
2022/10/20 11:05:16;;;;;;;2.58;0.70;;;;;;;6.53;79.58;100424.71;1827156;78;20912;-91
2022/10/20 11:08:06;;;;;;;0.20;0.20;;;;;;;6.52;79.19;100421.73;1827578;78;20923;-91
2022/10/20 11:11:10;;;;;;;2.27;1.62;;;;;;;6.54;79.34;100430.33;1826000;78;20900;-90
2022/10/20 11:13:51;;;;;;;0.68;0.68;;;;;;;6.57;79.11;100426.27;1797254;78;21215;-91
2022/10/20 11:16:56;;;;;;;1.00;0.70;;;;;;;6.58;78.47;100429.70;1827766;78;20876;-90
2022/10/20 11:19:42;;;;;;;0.88;0.88;;;;;;;6.53;78.31;100430.38;1828346;78;20875;-91
2022/10/20 11:22:30;;;;;;;21.00;13.88;;;;;;;6.47;78.43;100431.53;1827853;78;20891;-92
2022/10/20 11:25:17;;;;;;;2.02;1.60;;;;;;;6.41;78.51;100441.75;1798148;78;20950;-89
2022/10/20 11:27:45;;;;;;;1.02;0.78;;;;;;;6.28;78.15;100443.69;1786033;78;21101;-89
2022/10/20 11:30:20;;;;;;;0.20;0.20;;;;;;;6.12;77.75;100448.28;1826721;78;20916;-90
2022/10/20 11:33:02;;;;;;;1.75;0.70;;;;;;;5.96;77.71;100452.48;1826443;78;20884;-90
2022/10/20 11:36:03;;;;;;;0.40;0.20;;;;;;;5.86;77.87;100442.88;1826953;78;20966;-91
2022/10/20 11:38:41;;;;;;;0.50;0.50;;;;;;;5.83;78.21;100445.62;1826505;78;20888;-91
2022/10/20 11:41:16;;;;;;;0.30;0.30;;;;;;;5.84;78.54;100432.98;1811585;78;21486;-89
2022/10/20 11:44:07;;;;;;;1.47;0.25;;;;;;;5.84;78.63;100444.69;1826234;78;20907;-86
2022/10/20 11:46:45;;;;;;;1.05;0.60;;;;;;;5.79;78.45;100438.85;1803506;78;21382;-89
2022/10/20 11:49:11;;;;;;;0.90;0.50;;;;;;;5.74;78.80;100436.91;1794176;79;20888;-88
2022/10/20 11:52:08;;;;;;;1.47;0.30;;;;;;;5.67;78.97;100425.92;1793991;79;20931;-88
2022/10/20 11:54:56;;;;;;;0.40;0.30;;;;;;;5.62;79.34;100427.85;1794077;80;21133;-88